Terminal Aerodrome Forecast
Issued by NWS

Home | Current Version | Previous Version | Text Only | Print | Product List | Glossary On
Versions: 1 2 3 4 5 6 7 8 9 10 11 12 13 14 15 16 17 18 19 20
000
FTUS45 KFGZ 261100
TAFSEZ
TAF
KSEZ 261140Z 2612/2712 05006KT P6SM SCT110
      TEMPO 2612/2614 5SM FU
     FM262000 VRB06KT P6SM SCT080 BKN110
     FM270300 VRB06KT P6SM SCT110 BKN200=

USA.gov is the U.S. government's official web portal to all federal, state and local government web resources and services.